Time;durP1;ratioP1;P1;durP2;ratioP2;P2;SDS_P1;SDS_P2;PMS_P1;PMS_P2;Temp;Humidity;BMP_temperature;BMP_pressure;BME280_temperature;BME280_humidity;BME280_pressure;Samples;Min_cycle;Max_cycle;Signal;HPM_P1;HPM_P2
2023/03/16 00:01:12;;;;;;;37.55;16.95;;;5.70;1.00;;;;;;4913006;29;20047;-78
2023/03/16 00:03:39;;;;;;;39.28;20.05;;;5.70;1.00;;;;;;4895361;29;20052;-78
2023/03/16 00:06:07;;;;;;;34.88;18.13;;;5.70;1.00;;;;;;4913673;29;20047;-77
2023/03/16 00:08:35;;;;;;;33.60;16.38;;;5.70;1.00;;;;;;4913417;29;20063;-78
2023/03/16 00:11:03;;;;;;;30.77;15.90;;;5.60;1.00;;;;;;4914059;29;20495;-79
2023/03/16 00:13:31;;;;;;;39.47;18.92;;;5.60;1.00;;;;;;4913372;29;20508;-78
2023/03/16 00:16:01;;;;;;;46.15;22.17;;;5.60;1.00;;;;;;4915378;29;20107;-77
2023/03/16 00:18:29;;;;;;;47.10;19.83;;;5.70;1.00;;;;;;4912029;29;20043;-79
2023/03/16 00:20:58;;;;;;;35.47;18.25;;;5.70;1.00;;;;;;4913104;29;20096;-79
2023/03/16 00:23:27;;;;;;;39.22;20.67;;;5.60;1.00;;;;;;4912510;29;20096;-80
2023/03/16 00:25:55;;;;;;;37.28;19.52;;;5.60;1.00;;;;;;4913115;29;20602;-79
2023/03/16 00:28:23;;;;;;;32.28;18.75;;;5.50;1.00;;;;;;4895909;29;20142;-78
2023/03/16 00:30:51;;;;;;;38.10;20.17;;;5.50;1.00;;;;;;4898632;29;20048;-78
2023/03/16 00:33:19;;;;;;;45.33;20.80;;;5.50;1.00;;;;;;4911984;29;20131;-80
2023/03/16 00:35:49;;;;;;;41.03;20.80;;;5.60;1.00;;;;;;4918756;29;20488;-79
2023/03/16 00:38:17;;;;;;;43.55;22.52;;;5.60;1.00;;;;;;4895265;29;20052;-78
2023/03/16 00:40:46;;;;;;;39.72;21.17;;;5.60;1.00;;;;;;4896596;29;20485;-77
2023/03/16 00:43:17;;;;;;;38.10;18.70;;;5.60;1.00;;;;;;4895123;29;20048;-77
2023/03/16 00:45:45;;;;;;;38.97;17.60;;;5.70;1.00;;;;;;4898141;29;20048;-78
2023/03/16 00:48:12;;;;;;;43.65;21.05;;;5.60;1.00;;;;;;4902179;29;20529;-79
2023/03/16 00:50:42;;;;;;;44.97;21.45;;;5.50;1.00;;;;;;4908979;29;20047;-78
2023/03/16 00:53:09;;;;;;;37.15;17.80;;;5.50;1.00;;;;;;4906523;29;20416;-77
2023/03/16 00:55:37;;;;;;;29.88;15.63;;;5.60;1.00;;;;;;4899855;29;20226;-77
2023/03/16 00:58:05;;;;;;;32.08;16.73;;;5.50;1.00;;;;;;4914255;29;20044;-77
2023/03/16 01:00:32;;;;;;;36.17;17.80;;;5.50;1.00;;;;;;4900129;29;20059;-77
2023/03/16 01:03:00;;;;;;;37.20;18.67;;;5.60;1.00;;;;;;4915348;29;20484;-77
2023/03/16 01:05:27;;;;;;;38.92;18.73;;;5.60;1.00;;;;;;4917064;29;20070;-78
2023/03/16 01:07:56;;;;;;;36.65;18.80;;;5.60;1.00;;;;;;4916315;29;20059;-80
2023/03/16 01:10:23;;;;;;;38.53;18.95;;;5.60;1.00;;;;;;4901373;29;20054;-79
2023/03/16 01:12:54;;;;;;;40.38;19.45;;;5.50;1.00;;;;;;4917643;29;20056;-78
2023/03/16 01:15:23;;;;;;;42.28;19.10;;;5.50;1.00;;;;;;4916532;29;20048;-77
2023/03/16 01:17:50;;;;;;;34.90;18.10;;;5.50;1.00;;;;;;4915116;29;20123;-77
2023/03/16 01:20:18;;;;;;;34.50;16.50;;;5.50;1.00;;;;;;4917381;29;20511;-77
2023/03/16 01:22:46;;;;;;;30.77;13.95;;;5.40;1.00;;;;;;4916269;29;20076;-79
2023/03/16 01:25:15;;;;;;;32.28;16.70;;;5.30;1.00;;;;;;4899987;29;20075;-78
2023/03/16 01:27:43;;;;;;;30.77;14.82;;;5.30;1.00;;;;;;4897046;29;20074;-80
2023/03/16 01:30:11;;;;;;;33.13;14.68;;;5.20;1.00;;;;;;4915455;29;20508;-78
2023/03/16 01:32:40;;;;;;;34.70;18.30;;;5.20;1.00;;;;;;4898348;29;20052;-76
2023/03/16 01:35:09;;;;;;;31.15;14.45;;;5.20;1.00;;;;;;4899719;29;20441;-77
2023/03/16 01:37:36;;;;;;;34.60;17.08;;;5.20;1.00;;;;;;4920839;29;20756;-77
2023/03/16 01:40:16;;;;;;;33.67;17.30;;;5.30;1.00;;;;;;4920908;29;20040;-78
2023/03/16 01:42:48;;;;;;;28.10;13.70;;;5.30;1.00;;;;;;4917538;29;20044;-78
2023/03/16 01:45:53;;;;;;;28.55;13.45;;;5.20;1.00;;;;;;4898178;29;20510;-78
2023/03/16 01:48:23;;;;;;;38.53;16.92;;;5.20;1.00;;;;;;4923687;29;20561;-78
2023/03/16 01:50:52;;;;;;;35.15;17.77;;;5.20;1.00;;;;;;4893559;29;20075;-78
2023/03/16 01:53:20;;;;;;;35.60;15.85;;;5.20;1.00;;;;;;4898920;29;20044;-77
2023/03/16 01:55:51;;;;;;;34.58;15.98;;;5.20;1.00;;;;;;4897252;29;20504;-77
2023/03/16 01:58:20;;;;;;;41.83;19.38;;;5.20;1.00;;;;;;4898083;29;20052;-79
2023/03/16 02:00:48;;;;;;;36.00;17.75;;;5.20;1.00;;;;;;4898838;29;20123;-78
2023/03/16 02:03:22;;;;;;;33.83;16.75;;;5.30;1.00;;;;;;4893965;29;20048;-78
2023/03/16 02:05:59;;;;;;;30.30;15.73;;;5.30;1.00;;;;;;4898492;29;20048;-78
2023/03/16 02:08:29;;;;;;;30.92;16.48;;;5.20;1.00;;;;;;4906510;29;20047;-77
2023/03/16 02:10:58;;;;;;;37.72;18.63;;;5.20;1.00;;;;;;4898184;29;20048;-79
2023/03/16 02:13:38;;;;;;;31.67;14.45;;;5.10;1.00;;;;;;4898136;29;20406;-79
2023/03/16 02:16:08;;;;;;;38.92;17.10;;;5.10;1.00;;;;;;4896675;29;20587;-78
2023/03/16 02:18:36;;;;;;;35.33;18.55;;;5.10;1.00;;;;;;4897299;29;20492;-80
2023/03/16 02:21:12;;;;;;;35.05;16.27;;;5.10;1.00;;;;;;4898409;29;20048;-77
2023/03/16 02:23:42;;;;;;;32.83;16.98;;;5.00;1.00;;;;;;4898775;29;20044;-77
2023/03/16 02:26:21;;;;;;;45.08;22.85;;;5.10;1.00;;;;;;4904306;29;20053;-79
2023/03/16 02:28:58;;;;;;;43.83;23.20;;;5.10;1.00;;;;;;4905814;29;20054;-79
2023/03/16 02:31:27;;;;;;;44.65;20.88;;;5.10;1.00;;;;;;4914918;29;20040;-81
2023/03/16 02:33:57;;;;;;;38.28;18.15;;;5.00;1.00;;;;;;4887138;29;20040;-78
2023/03/16 02:36:25;;;;;;;32.28;15.65;;;5.00;1.00;;;;;;4914907;29;20054;-80
2023/03/16 02:38:52;;;;;;;37.45;16.52;;;5.00;1.00;;;;;;4899007;29;20536;-78
2023/03/16 02:41:21;;;;;;;31.38;16.27;;;4.90;1.00;;;;;;4897557;29;20052;-79
2023/03/16 02:44:00;;;;;;;30.52;12.73;;;4.90;1.00;;;;;;4897193;29;20058;-78
2023/03/16 02:46:34;;;;;;;49.42;24.33;;;4.90;1.00;;;;;;4897137;29;20048;-78
2023/03/16 02:49:06;;;;;;;36.22;18.17;;;4.90;1.00;;;;;;4896065;29;20500;-79
2023/03/16 02:51:34;;;;;;;54.90;29.00;;;4.80;1.00;;;;;;4914965;29;20126;-79
2023/03/16 02:54:02;;;;;;;29.73;14.43;;;4.80;1.00;;;;;;4914248;29;20107;-78
2023/03/16 02:56:32;;;;;;;37.00;21.23;;;4.70;1.00;;;;;;4895295;29;20048;-77
2023/03/16 02:59:00;;;;;;;41.78;22.88;;;4.60;1.00;;;;;;4897664;29;20056;-78
2023/03/16 03:01:28;;;;;;;34.10;16.58;;;4.50;1.00;;;;;;4896849;29;20051;-79
2023/03/16 03:03:57;;;;;;;43.22;23.35;;;4.40;1.00;;;;;;4896543;29;20135;-79
2023/03/16 03:06:25;;;;;;;26.85;12.82;;;4.40;1.00;;;;;;4897580;29;20059;-78
2023/03/16 03:08:53;;;;;;;34.75;19.55;;;4.30;1.00;;;;;;4897383;29;20099;-78
2023/03/16 03:11:21;;;;;;;53.10;28.20;;;4.10;1.00;;;;;;4896131;29;22018;-78
2023/03/16 03:13:49;;;;;;;37.92;19.92;;;4.10;1.00;;;;;;4914112;29;20116;-79
2023/03/16 03:16:21;;;;;;;40.50;23.73;;;4.00;1.00;;;;;;4888881;29;20052;-78
2023/03/16 03:18:51;;;;;;;49.80;26.70;;;3.90;1.00;;;;;;4895949;29;20480;-77
2023/03/16 03:21:20;;;;;;;47.55;24.77;;;3.80;1.00;;;;;;4888542;29;20045;-79
2023/03/16 03:23:48;;;;;;;49.50;28.73;;;3.70;1.00;;;;;;4896122;29;20492;-78
2023/03/16 03:26:16;;;;;;;26.00;13.63;;;3.70;1.00;;;;;;4896389;29;20044;-79
2023/03/16 03:28:45;;;;;;;38.58;22.13;;;3.70;1.00;;;;;;4897061;29;20043;-79
2023/03/16 03:31:16;;;;;;;53.50;27.08;;;3.60;1.00;;;;;;4897358;29;20504;-80
2023/03/16 03:33:44;;;;;;;46.90;25.20;;;3.60;1.00;;;;;;4894739;29;20048;-78
2023/03/16 03:36:12;;;;;;;41.80;22.63;;;3.60;7.10;;;;;;4913718;29;20432;-79
2023/03/16 03:38:43;;;;;;;43.92;23.40;;;3.40;44.60;;;;;;4896272;29;20072;-77
2023/03/16 03:41:10;;;;;;;38.63;20.92;;;3.40;99.90;;;;;;4914132;29;20103;-79
2023/03/16 03:43:40;;;;;;;38.15;21.20;;;3.30;99.90;;;;;;4900607;29;20059;-78
2023/03/16 03:46:14;;;;;;;43.80;21.00;;;3.30;99.90;;;;;;4897563;29;20172;-78
2023/03/16 03:48:41;;;;;;;24.52;12.38;;;3.20;99.90;;;;;;4888103;29;20063;-77
2023/03/16 03:51:09;;;;;;;37.50;20.63;;;3.20;99.90;;;;;;4915314;29;20441;-77
2023/03/16 03:54:07;;;;;;;38.17;19.23;;;3.20;99.90;;;;;;4909473;29;20072;-78
2023/03/16 03:56:54;;;;;;;31.20;15.05;;;3.20;99.90;;;;;;4897651;29;20048;-78
2023/03/16 03:59:22;;;;;;;34.55;17.13;;;3.20;92.80;;;;;;4897624;29;20138;-77
2023/03/16 04:02:08;;;;;;;30.10;13.20;;;3.20;8.30;;;;;;4913123;29;20052;-78
2023/03/16 04:04:44;;;;;;;36.35;17.75;;;3.20;1.00;;;;;;4896753;29;20492;-76
2023/03/16 04:07:13;;;;;;;41.40;18.40;;;3.10;1.00;;;;;;4896837;29;20051;-79
2023/03/16 04:09:45;;;;;;;41.30;19.75;;;3.10;24.20;;;;;;4894135;29;20162;-78
2023/03/16 04:12:32;;;;;;;38.47;19.45;;;3.10;28.20;;;;;;4910876;29;20056;-78
2023/03/16 04:15:00;;;;;;;35.20;18.92;;;3.00;31.70;;;;;;4896948;29;20136;-78
2023/03/16 04:17:34;;;;;;;33.92;17.48;;;3.00;84.70;;;;;;4895813;29;20060;-79
2023/03/16 04:20:11;;;;;;;37.42;18.83;;;2.90;70.30;;;;;;4888953;29;20055;-78
2023/03/16 04:22:39;;;;;;;35.35;19.17;;;2.90;80.50;;;;;;4912296;29;20036;-79
2023/03/16 04:25:08;;;;;;;36.03;18.80;;;2.90;96.90;;;;;;4913460;29;20040;-77
2023/03/16 04:27:38;;;;;;;39.90;20.08;;;2.80;66.20;;;;;;4896190;29;20111;-77
2023/03/16 04:30:11;;;;;;;37.05;18.67;;;2.80;71.90;;;;;;4917961;29;20063;-78
2023/03/16 04:32:43;;;;;;;36.05;19.15;;;2.80;95.50;;;;;;4895771;29;20050;-79
2023/03/16 04:35:12;;;;;;;35.50;18.65;;;2.70;99.90;;;;;;4897517;29;20496;-77
2023/03/16 04:37:47;;;;;;;40.38;20.48;;;2.70;99.90;;;;;;4897638;29;20523;-79
2023/03/16 04:40:18;;;;;;;38.10;21.40;;;2.70;99.90;;;;;;4897322;29;20665;-78
2023/03/16 04:42:51;;;;;;;39.65;20.33;;;2.60;99.90;;;;;;4911167;29;20515;-77
2023/03/16 04:45:20;;;;;;;50.40;25.77;;;2.60;99.90;;;;;;4912493;29;20080;-77
2023/03/16 04:47:51;;;;;;;43.72;23.90;;;2.60;99.90;;;;;;4894873;29;20123;-78
2023/03/16 04:50:19;;;;;;;47.42;24.73;;;2.50;99.90;;;;;;4895414;29;20036;-77
2023/03/16 04:52:51;;;;;;;34.55;19.80;;;2.50;99.90;;;;;;4895090;29;20100;-78
2023/03/16 04:55:21;;;;;;;42.38;22.90;;;2.50;99.90;;;;;;4895794;29;20560;-78
2023/03/16 04:57:51;;;;;;;38.15;23.35;;;2.50;99.90;;;;;;4919358;29;20122;-77
2023/03/16 05:00:21;;;;;;;44.15;25.70;;;2.40;99.90;;;;;;4896190;29;20040;-79
2023/03/16 05:02:57;;;;;;;45.22;25.58;;;2.40;99.90;;;;;;4895389;29;20080;-77
2023/03/16 05:05:24;;;;;;;48.72;26.50;;;2.40;99.90;;;;;;4895586;29;20191;-77
2023/03/16 05:07:52;;;;;;;46.47;27.27;;;2.40;99.90;;;;;;4912943;29;20044;-79
2023/03/16 05:10:21;;;;;;;46.58;27.15;;;2.40;99.90;;;;;;4912992;29;20044;-77
2023/03/16 05:12:49;;;;;;;46.15;26.23;;;2.40;99.90;;;;;;4911877;29;20063;-79
2023/03/16 05:15:17;;;;;;;41.42;24.25;;;2.40;99.90;;;;;;4894427;29;20048;-79
2023/03/16 05:17:47;;;;;;;45.83;26.15;;;2.40;99.90;;;;;;4895888;29;20044;-78
2023/03/16 05:20:16;;;;;;;46.45;25.52;;;2.40;99.90;;;;;;4895531;29;20579;-79
2023/03/16 05:22:48;;;;;;;57.03;30.27;;;2.40;99.90;;;;;;4895134;29;20068;-78
2023/03/16 05:25:22;;;;;;;40.33;22.67;;;2.50;99.90;;;;;;4916516;29;20056;-77
2023/03/16 05:27:53;;;;;;;40.75;24.48;;;2.60;99.90;;;;;;4895227;29;20401;-77
2023/03/16 05:30:43;;;;;;;44.42;24.08;;;2.60;99.90;;;;;;4911658;29;20044;-79
2023/03/16 05:33:14;;;;;;;42.53;25.25;;;2.70;99.90;;;;;;4895465;29;20063;-78
2023/03/16 05:35:43;;;;;;;38.45;22.45;;;2.80;99.90;;;;;;4899085;29;20437;-79
2023/03/16 05:38:14;;;;;;;47.13;23.83;;;2.90;99.90;;;;;;4899187;29;20047;-80
2023/03/16 05:40:45;;;;;;;46.83;23.33;;;3.00;99.90;;;;;;4899882;29;20052;-77
2023/03/16 05:43:29;;;;;;;47.90;24.10;;;3.00;41.60;;;;;;4887157;29;20105;-80
2023/03/16 05:45:57;;;;;;;54.75;27.10;;;3.10;1.00;;;;;;4883553;29;20096;-78
2023/03/16 05:48:25;;;;;;;52.83;26.55;;;3.20;1.00;;;;;;4898697;29;20068;-78
2023/03/16 05:50:55;;;;;;;59.03;28.80;;;3.30;1.00;;;;;;4899398;29;20139;-79
2023/03/16 05:53:28;;;;;;;57.25;28.65;;;3.40;1.00;;;;;;4898476;29;20056;-78
2023/03/16 05:56:00;;;;;;;61.58;29.33;;;3.60;1.00;;;;;;4899789;29;20070;-79
2023/03/16 05:58:28;;;;;;;68.18;32.97;;;3.80;1.00;;;;;;4899481;29;20052;-78
2023/03/16 06:00:59;;;;;;;68.05;32.83;;;4.00;1.00;;;;;;4900316;29;20046;-76
2023/03/16 06:03:30;;;;;;;71.03;33.95;;;4.10;1.00;;;;;;4895536;29;20048;-79
2023/03/16 06:06:00;;;;;;;69.32;31.85;;;4.30;1.00;;;;;;4904310;29;20044;-78
2023/03/16 06:08:32;;;;;;;61.22;30.92;;;4.50;1.00;;;;;;4916565;29;20064;-79
2023/03/16 06:11:13;;;;;;;71.07;34.22;;;4.70;1.00;;;;;;4898933;29;20044;-79
2023/03/16 06:13:41;;;;;;;70.68;31.85;;;5.00;1.00;;;;;;4905983;29;20056;-78
2023/03/16 06:16:10;;;;;;;66.15;33.20;;;5.20;1.00;;;;;;4892770;29;20052;-79
2023/03/16 06:18:38;;;;;;;69.45;32.75;;;5.40;1.00;;;;;;4900079;29;20088;-79
2023/03/16 06:21:06;;;;;;;56.50;29.98;;;5.60;1.00;;;;;;4899680;29;20086;-77
2023/03/16 06:23:35;;;;;;;44.55;23.30;;;5.80;1.00;;;;;;4907422;29;20075;-79
2023/03/16 06:26:04;;;;;;;52.22;21.08;;;6.00;1.00;;;;;;4900401;29;20040;-77
2023/03/16 06:28:36;;;;;;;34.70;17.40;;;6.30;1.00;;;;;;4898052;29;20056;-79
2023/03/16 06:31:03;;;;;;;31.80;15.00;;;6.50;1.00;;;;;;4899078;29;20050;-77
2023/03/16 06:33:34;;;;;;;27.25;12.35;;;6.80;1.00;;;;;;4905796;29;20044;-78
2023/03/16 06:36:02;;;;;;;23.00;11.70;;;6.80;1.00;;;;;;4907796;29;20505;-77
2023/03/16 06:38:34;;;;;;;24.40;10.55;;;7.00;1.00;;;;;;4905024;29;20138;-78
2023/03/16 06:41:22;;;;;;;22.85;10.80;;;6.90;1.00;;;;;;4915462;29;20147;-77
2023/03/16 06:43:51;;;;;;;18.58;8.50;;;7.10;1.00;;;;;;4897896;29;20088;-78
2023/03/16 06:46:18;;;;;;;15.65;7.38;;;7.40;1.00;;;;;;4915393;29;20095;-79
2023/03/16 06:48:47;;;;;;;18.02;7.45;;;7.40;1.00;;;;;;4898171;29;20152;-79
2023/03/16 06:51:15;;;;;;;13.85;7.03;;;7.20;1.00;;;;;;4885440;29;20092;-77
2023/03/16 06:53:42;;;;;;;19.42;7.63;;;7.20;1.00;;;;;;4914012;29;20044;-77
2023/03/16 06:56:10;;;;;;;12.15;5.07;;;7.40;1.00;;;;;;4897976;29;20583;-79
2023/03/16 06:58:41;;;;;;;11.13;5.32;;;7.40;99.90;;;;;;4896985;29;20131;-79
2023/03/16 07:01:11;;;;;;;13.77;5.05;;;7.50;99.90;;;;;;4897659;29;20055;-78
2023/03/16 07:03:39;;;;;;;12.20;4.47;;;7.70;99.90;;;;;;4913880;29;20044;-78
2023/03/16 07:06:15;;;;;;;11.68;3.78;;;7.60;99.90;;;;;;4905064;29;20048;-77
2023/03/16 07:08:44;;;;;;;9.93;4.18;;;6.90;99.90;;;;;;4898250;29;20048;-78
2023/03/16 07:11:13;;;;;;;8.85;3.70;;;6.70;99.90;;;;;;4898336;29;20050;-77
2023/03/16 07:13:41;;;;;;;7.00;3.80;;;6.70;99.90;;;;;;4914645;29;20080;-78
2023/03/16 07:16:10;;;;;;;12.07;4.80;;;6.80;99.90;;;;;;4922095;29;20059;-76
2023/03/16 07:18:38;;;;;;;12.30;5.05;;;6.70;99.90;;;;;;4906197;29;20059;-75
2023/03/16 07:21:11;;;;;;;14.70;5.43;;;7.10;99.90;;;;;;4903213;29;20073;-77
2023/03/16 07:23:39;;;;;;;17.38;5.82;;;7.40;99.90;;;;;;4896268;29;20044;-76
2023/03/16 07:26:10;;;;;;;13.35;4.78;;;7.70;99.90;;;;;;4893481;29;20052;-77
2023/03/16 07:28:46;;;;;;;12.35;5.07;;;7.80;99.90;;;;;;4904189;29;20127;-77
2023/03/16 07:31:15;;;;;;;11.35;5.22;;;7.60;99.90;;;;;;4905558;29;20048;-76
2023/03/16 07:33:43;;;;;;;12.85;4.50;;;7.50;99.90;;;;;;4897551;29;20496;-78
2023/03/16 07:36:16;;;;;;;10.20;4.82;;;7.50;99.90;;;;;;4898105;29;20404;-80
2023/03/16 07:38:50;;;;;;;14.50;5.75;;;7.40;99.90;;;;;;4898240;29;20048;-76
2023/03/16 07:41:17;;;;;;;8.60;4.45;;;7.30;99.90;;;;;;4914004;29;20067;-79
2023/03/16 07:43:46;;;;;;;12.27;4.97;;;7.00;99.90;;;;;;4888954;29;20056;-80
2023/03/16 07:46:16;;;;;;;12.57;5.38;;;7.10;99.90;;;;;;4897227;29;20079;-77
2023/03/16 07:48:45;;;;;;;13.73;5.10;;;7.10;99.90;;;;;;4914460;29;20044;-79
2023/03/16 07:51:13;;;;;;;11.70;6.07;;;7.20;99.90;;;;;;4916635;29;20417;-77
2023/03/16 07:53:42;;;;;;;8.52;4.30;;;7.20;99.90;;;;;;4904569;29;20067;-77
2023/03/16 07:56:18;;;;;;;11.30;5.00;;;7.20;99.90;;;;;;4896321;29;20071;-78
2023/03/16 07:58:48;;;;;;;13.07;4.57;;;7.10;99.90;;;;;;4896229;29;20051;-76
2023/03/16 08:01:18;;;;;;;9.57;5.13;;;7.00;99.90;;;;;;4920206;29;20056;-77
2023/03/16 08:03:45;;;;;;;11.05;5.10;;;7.10;99.90;;;;;;4913475;29;20115;-77
2023/03/16 08:06:13;;;;;;;14.02;4.63;;;7.10;99.90;;;;;;4919073;29;20064;-78
2023/03/16 08:08:41;;;;;;;12.07;4.60;;;7.10;99.90;;;;;;4929138;29;20040;-77
2023/03/16 08:11:12;;;;;;;9.82;4.43;;;6.90;99.90;;;;;;4908495;29;20128;-77
2023/03/16 08:13:53;;;;;;;10.43;5.28;;;7.00;99.90;;;;;;4896658;29;20487;-78
2023/03/16 08:16:24;;;;;;;12.48;4.93;;;7.00;99.90;;;;;;4919670;29;20062;-77
2023/03/16 08:18:52;;;;;;;11.43;5.50;;;7.10;99.90;;;;;;4895982;29;20040;-76
2023/03/16 08:21:20;;;;;;;9.30;4.70;;;7.00;99.90;;;;;;4904445;29;20048;-77
2023/03/16 08:23:49;;;;;;;16.65;5.45;;;6.90;99.90;;;;;;4896361;29;20050;-76
2023/03/16 08:26:18;;;;;;;11.20;5.18;;;6.80;99.90;;;;;;4899998;29;20059;-77
2023/03/16 08:28:50;;;;;;;14.20;5.63;;;6.70;99.90;;;;;;4950787;23;20051;-75
2023/03/16 08:31:18;;;;;;;13.50;5.97;;;6.60;99.90;;;;;;4958020;29;20043;-78
2023/03/16 08:33:58;;;;;;;17.10;5.65;;;6.50;99.90;;;;;;4949310;29;20044;-76
2023/03/16 08:36:29;;;;;;;12.65;5.57;;;6.60;99.90;;;;;;4941240;29;20051;-74
2023/03/16 08:38:58;;;;;;;9.82;4.40;;;6.70;99.90;;;;;;4922901;29;20504;-75
2023/03/16 08:41:29;;;;;;;10.77;5.13;;;6.80;99.90;;;;;;4923208;29;20069;-77
2023/03/16 08:44:03;;;;;;;12.77;5.55;;;6.80;99.90;;;;;;4927070;29;20397;-77
2023/03/16 08:46:58;;;;;;;14.40;5.28;;;6.80;99.90;;;;;;4931688;29;20205;-76
2023/03/16 08:49:28;;;;;;;14.10;5.78;;;6.80;99.90;;;;;;4926263;29;20048;-76
2023/03/16 08:52:11;;;;;;;13.20;6.28;;;6.90;99.90;;;;;;4925488;29;20044;-75
2023/03/16 08:54:40;;;;;;;11.52;6.15;;;7.00;99.90;;;;;;4930125;29;20048;-76
2023/03/16 08:57:09;;;;;;;11.35;5.93;;;7.10;99.90;;;;;;4924502;29;20048;-77
2023/03/16 08:59:36;;;;;;;12.00;6.93;;;7.10;99.90;;;;;;4924423;29;20126;-77
2023/03/16 09:02:05;;;;;;;14.07;6.50;;;7.00;99.90;;;;;;4919910;29;20067;-77
2023/03/16 09:04:34;;;;;;;14.70;5.15;;;7.00;99.90;;;;;;4923405;29;20103;-76
2023/03/16 09:07:03;;;;;;;13.68;6.07;;;7.00;99.90;;;;;;4927271;29;20086;-77
2023/03/16 09:09:31;;;;;;;11.55;4.80;;;7.20;99.90;;;;;;4926140;29;20051;-77
2023/03/16 09:12:01;;;;;;;14.75;6.20;;;7.10;99.90;;;;;;4956947;29;20062;-76
2023/03/16 09:14:28;;;;;;;13.02;6.40;;;7.00;99.90;;;;;;4950697;28;20048;-78
2023/03/16 09:16:56;;;;;;;15.18;5.97;;;6.90;99.90;;;;;;4939459;29;20062;-75
2023/03/16 09:19:24;;;;;;;13.00;6.32;;;7.00;99.90;;;;;;4936139;29;20122;-75
2023/03/16 09:21:52;;;;;;;15.73;6.38;;;7.00;99.90;;;;;;4935785;29;20042;-75
2023/03/16 09:24:23;;;;;;;10.48;5.72;;;7.10;99.90;;;;;;4952743;28;20039;-75
2023/03/16 09:26:50;;;;;;;12.82;5.68;;;7.40;99.90;;;;;;4972293;28;20036;-75
2023/03/16 09:29:18;;;;;;;13.98;5.78;;;7.80;99.90;;;;;;4969699;28;20055;-74
2023/03/16 09:31:51;;;;;;;8.52;4.30;;;8.00;99.90;;;;;;4970234;28;20603;-75
2023/03/16 09:34:18;;;;;;;9.27;4.32;;;7.90;99.90;;;;;;4955327;29;20075;-75
2023/03/16 09:36:46;;;;;;;9.48;4.80;;;8.10;99.90;;;;;;4950494;28;20044;-75
2023/03/16 09:39:14;;;;;;;8.82;4.07;;;8.10;99.90;;;;;;4941098;29;20047;-76
2023/03/16 09:41:48;;;;;;;12.27;4.63;;;7.90;99.90;;;;;;4945775;28;20054;-76
2023/03/16 09:44:38;;;;;;;8.25;4.53;;;7.60;99.90;;;;;;4947753;29;20110;-78
2023/03/16 09:47:09;;;;;;;9.95;4.60;;;7.60;99.90;;;;;;4945069;29;20043;-76
2023/03/16 09:49:44;;;;;;;13.23;4.57;;;7.50;99.90;;;;;;4945325;29;20058;-76
2023/03/16 09:52:23;;;;;;;14.98;8.88;;;7.30;99.90;;;;;;4949979;29;20035;-77
2023/03/16 09:54:59;;;;;;;18.17;9.70;;;7.50;99.90;;;;;;4945541;29;20043;-76
2023/03/16 09:57:27;;;;;;;;;;;7.60;99.90;;;;;;4952886;28;20063;-78
2023/03/16 09:59:58;;;;;;;13.02;5.30;;;7.80;99.90;;;;;;4934377;29;19922;-79
2023/03/16 10:02:50;;;;;;;11.45;5.78;;;8.10;99.90;;;;;;4927868;29;20044;-77
2023/03/16 10:05:21;;;;;;;12.52;6.93;;;8.50;99.90;;;;;;4944593;28;20436;-75
2023/03/16 10:08:01;;;;;;;11.73;5.00;;;8.90;99.90;;;;;;4945460;28;20044;-74
2023/03/16 10:10:50;;;;;;;10.85;4.53;;;9.10;99.90;;;;;;4945674;29;20095;-76
2023/03/16 10:13:27;;;;;;;7.43;4.00;;;9.10;99.90;;;;;;4944403;29;20141;-76
2023/03/16 10:15:56;;;;;;;11.30;4.88;;;9.00;99.90;;;;;;4944555;28;20043;-75
2023/03/16 10:18:29;;;;;;;11.40;4.82;;;8.90;99.90;;;;;;4957595;29;20048;-74
2023/03/16 10:20:57;;;;;;;11.15;5.13;;;9.00;99.90;;;;;;4955630;28;20495;-77
2023/03/16 10:23:26;;;;;;;9.93;4.40;;;8.90;99.90;;;;;;4949305;29;20055;-76
2023/03/16 10:25:56;;;;;;;11.32;4.95;;;8.90;99.90;;;;;;4946478;28;20508;-77
2023/03/16 10:28:26;;;;;;;6.53;3.90;;;9.00;99.90;;;;;;4944611;29;20055;-78
2023/03/16 10:30:55;;;;;;;9.45;4.22;;;9.00;99.90;;;;;;4928009;29;20071;-77
2023/03/16 10:33:25;;;;;;;11.68;4.90;;;9.00;99.90;;;;;;4927414;29;20051;-75
2023/03/16 10:36:00;;;;;;;18.60;6.82;;;8.90;99.90;;;;;;4926001;29;20381;-77
2023/03/16 10:38:31;;;;;;;14.23;6.47;;;8.90;99.90;;;;;;4928734;29;20043;-75
2023/03/16 10:41:00;;;;;;;10.35;5.47;;;9.20;99.90;;;;;;4943702;29;20048;-76
2023/03/16 10:43:31;;;;;;;12.95;5.07;;;9.30;99.90;;;;;;4942575;28;20243;-75
2023/03/16 10:46:02;;;;;;;8.65;3.88;;;9.70;99.90;;;;;;4927984;29;20048;-78
2023/03/16 10:48:34;;;;;;;9.40;4.22;;;9.80;99.90;;;;;;4927008;29;20051;-76
2023/03/16 10:51:07;;;;;;;12.02;4.72;;;9.70;99.90;;;;;;4943145;29;20546;-76
2023/03/16 10:53:38;;;;;;;9.32;3.90;;;9.50;99.90;;;;;;4943580;29;20052;-74
2023/03/16 10:56:12;;;;;;;9.48;4.15;;;9.20;99.90;;;;;;4927840;28;20053;-76
2023/03/16 10:58:42;;;;;;;10.00;3.95;;;9.40;99.90;;;;;;4944879;29;20507;-74
2023/03/16 11:01:17;;;;;;;13.45;6.32;;;9.40;99.90;;;;;;4956317;29;20039;-74
2023/03/16 11:03:50;;;;;;;11.93;5.15;;;9.30;99.90;;;;;;4953565;29;20122;-77
2023/03/16 11:06:21;;;;;;;10.32;4.45;;;9.40;99.90;;;;;;4944520;28;20048;-77
2023/03/16 11:08:49;;;;;;;9.40;4.50;;;9.60;99.90;;;;;;4944248;29;20454;-77
2023/03/16 11:11:26;;;;;;;13.48;5.78;;;9.60;99.90;;;;;;4946706;28;20047;-75
2023/03/16 11:13:58;;;;;;;8.10;3.65;;;9.50;99.90;;;;;;4956258;28;20045;-76
2023/03/16 11:16:31;;;;;;;8.95;4.10;;;9.40;99.90;;;;;;4954339;28;20043;-76
2023/03/16 11:19:03;;;;;;;8.77;4.90;;;9.10;99.90;;;;;;4929880;29;20114;-74
2023/03/16 11:21:42;;;;;;;10.02;5.13;;;9.30;99.90;;;;;;4929096;29;20499;-73
2023/03/16 11:24:19;;;;;;;9.32;3.97;;;9.70;99.90;;;;;;4944426;28;20050;-77
2023/03/16 11:26:54;;;;;;;7.38;3.88;;;10.00;99.90;;;;;;4943224;29;20359;-76
2023/03/16 11:29:27;;;;;;;7.47;3.63;;;10.10;99.90;;;;;;4934077;29;20300;-77
2023/03/16 11:32:00;;;;;;;7.95;3.45;;;10.20;99.90;;;;;;4952809;28;20048;-76
2023/03/16 11:34:34;;;;;;;13.50;5.75;;;10.40;99.90;;;;;;4940056;29;20047;-78
2023/03/16 11:37:13;;;;;;;9.13;4.40;;;10.40;99.90;;;;;;4939948;29;20043;-73
2023/03/16 11:39:53;;;;;;;9.15;5.15;;;10.30;99.90;;;;;;4954129;29;20043;-77
2023/03/16 11:42:34;;;;;;;10.20;4.30;;;10.10;99.90;;;;;;4952092;29;20043;-77
2023/03/16 11:45:19;;;;;;;11.02;4.80;;;9.90;99.90;;;;;;4941731;29;20464;-76
2023/03/16 11:48:21;;;;;;;8.68;4.38;;;9.80;99.90;;;;;;4941498;29;20040;-74
2023/03/16 11:50:57;;;;;;;10.82;3.78;;;9.80;99.90;;;;;;4943310;29;20126;-76
2023/03/16 11:53:40;;;;;;;9.55;4.55;;;10.00;99.90;;;;;;4950365;28;20113;-78
2023/03/16 11:56:16;;;;;;;12.80;5.57;;;10.50;99.90;;;;;;4927751;29;20063;-77
2023/03/16 11:59:20;;;;;;;7.00;3.95;;;10.90;99.90;;;;;;4944426;29;20049;-77
2023/03/16 12:02:06;;;;;;;11.82;4.18;;;10.70;99.90;;;;;;4938393;28;20492;-76
2023/03/16 12:04:51;;;;;;;8.30;4.63;;;10.90;99.90;;;;;;4944540;28;20036;-75
2023/03/16 12:07:35;;;;;;;13.63;6.65;;;10.90;99.90;;;;;;4942458;28;20070;-77
2023/03/16 12:10:19;;;;;;;11.13;4.78;;;11.20;99.90;;;;;;4926962;29;20142;-75
2023/03/16 12:13:00;;;;;;;10.75;5.22;;;11.20;99.90;;;;;;4941941;28;20412;-77
2023/03/16 12:15:37;;;;;;;9.18;4.03;;;11.50;99.90;;;;;;4943610;29;20499;-75
2023/03/16 12:18:14;;;;;;;10.63;4.07;;;11.50;99.90;;;;;;4942855;29;20411;-72
2023/03/16 12:20:47;;;;;;;9.35;4.40;;;11.40;99.90;;;;;;4925495;29;20519;-75
2023/03/16 12:23:22;;;;;;;10.77;4.10;;;11.30;99.90;;;;;;4949492;28;20046;-76
2023/03/16 12:25:52;;;;;;;9.43;4.03;;;11.20;99.90;;;;;;4945338;28;20399;-80
2023/03/16 12:28:24;;;;;;;11.10;4.18;;;11.20;99.90;;;;;;4943387;29;20510;-74
2023/03/16 12:31:05;;;;;;;10.93;4.90;;;11.10;99.90;;;;;;4927060;29;20547;-77
2023/03/16 12:34:02;;;;;;;30.90;15.68;;;10.90;99.90;;;;;;4940839;29;20047;-76
2023/03/16 12:37:17;;;;;;;14.23;6.70;;;10.50;99.90;;;;;;4942117;29;20568;-77
2023/03/16 12:40:08;;;;;;;24.17;12.23;;;10.30;99.90;;;;;;4966540;28;20035;-79
2023/03/16 12:42:56;;;;;;;38.00;19.58;;;10.30;99.90;;;;;;4964542;28;20027;-78
2023/03/16 12:45:33;;;;;;;9.82;4.40;;;10.40;99.90;;;;;;4962061;28;20067;-75
2023/03/16 12:48:17;;;;;;;7.57;3.40;;;10.50;99.90;;;;;;4946736;29;20051;-77
2023/03/16 12:50:53;;;;;;;12.60;5.45;;;10.30;99.90;;;;;;4944640;29;20053;-77
2023/03/16 12:53:29;;;;;;;17.25;7.05;;;10.40;99.90;;;;;;4933777;29;20047;-76
2023/03/16 12:55:57;;;;;;;8.98;4.38;;;10.30;99.90;;;;;;4944391;28;20035;-74
2023/03/16 12:58:27;;;;;;;10.57;5.03;;;10.40;99.90;;;;;;4941244;29;20091;-76
2023/03/16 13:00:58;;;;;;;12.10;5.32;;;10.50;99.90;;;;;;4945896;29;20070;-77
2023/03/16 13:03:30;;;;;;;8.85;4.53;;;10.60;99.90;;;;;;4942842;29;20126;-78
2023/03/16 13:06:00;;;;;;;7.60;3.17;;;10.70;99.90;;;;;;4942708;28;20479;-78
2023/03/16 13:08:28;;;;;;;11.77;4.68;;;10.70;99.90;;;;;;4925554;29;20172;-75
2023/03/16 13:11:03;;;;;;;10.48;5.50;;;10.80;99.90;;;;;;4942670;28;20036;-76